createdAt,value
2018-07-09T00:01:34.227Z,9.27
2018-07-09T00:04:03.224Z,8.17
2018-07-09T00:06:32.207Z,8.15
2018-07-09T00:09:01.203Z,8.73
2018-07-09T00:11:30.947Z,8.93
2018-07-09T00:13:59.993Z,9.50
2018-07-09T00:16:29.045Z,9.13
2018-07-09T00:18:58.795Z,8.23
2018-07-09T00:21:27.842Z,9.10
2018-07-09T00:23:56.581Z,8.93
2018-07-09T00:26:25.491Z,9.17
2018-07-09T00:28:54.445Z,8.37
2018-07-09T00:31:23.215Z,8.50
2018-07-09T00:33:52.123Z,9.10
2018-07-09T00:36:21.141Z,9.43
2018-07-09T00:38:50.246Z,9.60
2018-07-09T00:41:19.310Z,8.40
2018-07-09T00:43:48.429Z,8.13
2018-07-09T00:46:17.696Z,9.27
2018-07-09T00:48:46.947Z,9.40
2018-07-09T00:51:16.051Z,8.67
2018-07-09T00:53:45.127Z,8.97
2018-07-09T00:56:14.344Z,8.90
2018-07-09T00:58:43.315Z,8.80
2018-07-09T01:01:12.288Z,9.88
2018-07-09T01:03:41.294Z,8.80
2018-07-09T01:06:10.324Z,10.30
2018-07-09T01:08:39.028Z,7.63
2018-07-09T01:11:13.397Z,9.13
2018-07-09T01:13:46.373Z,7.93
2018-07-09T01:16:15.317Z,9.03
2018-07-09T01:18:44.287Z,7.50
2018-07-09T01:21:14.390Z,8.60
2018-07-09T01:23:43.382Z,8.43
2018-07-09T01:26:12.380Z,7.90
2018-07-09T01:28:42.134Z,7.97
2018-07-09T01:31:11.085Z,9.07
2018-07-09T01:33:40.119Z,9.10
2018-07-09T01:36:08.886Z,7.97
2018-07-09T01:38:39.065Z,8.07
2018-07-09T01:41:08.105Z,7.83
2018-07-09T01:43:37.041Z,8.35
2018-07-09T01:46:05.842Z,7.67
2018-07-09T01:48:34.784Z,10.13
2018-07-09T01:51:03.744Z,7.90
2018-07-09T01:53:32.484Z,9.83
2018-07-09T01:56:01.338Z,8.47
2018-07-09T01:58:30.433Z,7.57
2018-07-09T02:01:00.092Z,9.10
2018-07-09T02:03:29.088Z,8.20
2018-07-09T02:05:58.228Z,10.10
2018-07-09T02:08:27.439Z,8.80
2018-07-09T02:10:56.467Z,8.70
2018-07-09T02:13:25.534Z,8.73
2018-07-09T02:15:54.529Z,7.63
2018-07-09T02:18:23.550Z,7.53
2018-07-09T02:20:52.635Z,7.90
2018-07-09T02:23:21.799Z,8.77
2018-07-09T02:25:50.919Z,7.63
2018-07-09T02:28:19.913Z,8.43
2018-07-09T02:30:49.113Z,8.43
2018-07-09T02:33:18.229Z,9.40
2018-07-09T02:35:47.331Z,8.23
2018-07-09T02:38:16.358Z,8.93
2018-07-09T02:40:46.268Z,9.40
2018-07-09T02:43:15.266Z,9.60
2018-07-09T02:45:44.043Z,9.10
2018-07-09T02:48:12.917Z,9.87
2018-07-09T02:50:41.936Z,10.70
2018-07-09T02:53:10.739Z,10.27
2018-07-09T02:55:39.587Z,11.73
2018-07-09T02:58:08.566Z,10.27
2018-07-09T03:00:37.321Z,9.93
2018-07-09T03:03:06.419Z,10.63
2018-07-09T03:05:35.497Z,11.90
2018-07-09T03:08:04.631Z,10.23
2018-07-09T03:10:33.844Z,10.10
2018-07-09T03:13:02.951Z,10.50
2018-07-09T03:15:32.016Z,11.03
2018-07-09T03:18:01.495Z,10.50
2018-07-09T03:20:30.464Z,10.90
2018-07-09T03:22:59.468Z,12.83
2018-07-09T03:25:28.437Z,10.50
2018-07-09T03:27:57.417Z,11.23
2018-07-09T03:30:26.796Z,9.83
2018-07-09T03:32:55.918Z,9.90
2018-07-09T03:35:25.170Z,9.90
2018-07-09T03:37:54.227Z,8.57
2018-07-09T03:40:23.318Z,9.00
2018-07-09T03:42:52.332Z,9.20
2018-07-09T03:45:21.356Z,10.73
2018-07-09T03:47:50.158Z,8.93
2018-07-09T03:50:19.020Z,9.33
2018-07-09T03:52:48.135Z,8.80
2018-07-09T03:55:17.142Z,8.97
2018-07-09T03:57:46.242Z,9.90
2018-07-09T04:00:15.345Z,9.33
2018-07-09T04:02:45.025Z,10.07
2018-07-09T04:05:14.191Z,8.90
2018-07-09T04:07:43.183Z,10.37
2018-07-09T04:10:12.189Z,7.97
2018-07-09T04:12:41.321Z,10.53
2018-07-09T04:15:10.355Z,9.00
2018-07-09T04:17:39.364Z,9.47
2018-07-09T04:20:08.347Z,8.57
2018-07-09T04:22:37.323Z,9.13
2018-07-09T04:25:06.286Z,9.33
2018-07-09T04:27:35.230Z,8.23
2018-07-09T04:30:03.975Z,9.60
2018-07-09T04:32:32.846Z,9.08
2018-07-09T04:35:02.023Z,10.50
2018-07-09T04:37:31.104Z,9.73
2018-07-09T04:40:00.147Z,9.90
2018-07-09T04:42:28.983Z,9.93
2018-07-09T04:44:57.916Z,10.28
2018-07-09T04:47:27.139Z,10.70
2018-07-09T04:49:56.205Z,10.58
2018-07-09T04:52:25.156Z,11.20
2018-07-09T04:54:53.931Z,11.50
2018-07-09T04:57:22.802Z,12.33
2018-07-09T04:59:51.961Z,11.50
2018-07-09T05:02:20.720Z,11.65
2018-07-09T05:04:49.650Z,11.35
2018-07-09T05:07:18.724Z,11.33
2018-07-09T05:09:48.043Z,12.65
2018-07-09T05:12:17.271Z,12.73
2018-07-09T05:14:46.497Z,24.90
2018-07-09T05:17:16.282Z,14.53
2018-07-09T05:19:45.315Z,10.82
2018-07-09T05:22:14.328Z,10.25
2018-07-09T05:24:43.116Z,10.55
2018-07-09T05:27:12.699Z,9.45
2018-07-09T05:29:41.691Z,10.45
2018-07-09T05:32:10.664Z,9.28
2018-07-09T05:34:39.655Z,10.80
2018-07-09T05:37:08.688Z,8.93
2018-07-09T05:39:38.323Z,10.32
2018-07-09T05:42:07.332Z,9.73
2018-07-09T05:44:37.009Z,8.15
2018-07-09T05:47:06.059Z,9.33
2018-07-09T05:49:35.052Z,7.58
2018-07-09T05:52:04.023Z,7.58
2018-07-09T05:54:33.103Z,6.75
2018-07-09T05:57:01.956Z,8.50
2018-07-09T05:59:30.835Z,9.43
2018-07-09T06:01:59.831Z,8.60
2018-07-09T06:04:28.815Z,17.23
2018-07-09T06:06:57.806Z,6.45
2018-07-09T06:09:26.808Z,6.90
2018-07-09T06:11:55.859Z,8.55
2018-07-09T06:14:24.912Z,8.40
2018-07-09T06:16:53.907Z,17.73
2018-07-09T06:19:22.985Z,7.47
2018-07-09T06:21:51.895Z,7.70
2018-07-09T06:24:20.815Z,8.40
2018-07-09T06:26:49.862Z,7.55
2018-07-09T06:29:18.683Z,6.78
2018-07-09T06:31:47.652Z,8.50
2018-07-09T06:34:16.654Z,6.62
2018-07-09T06:36:45.813Z,8.33
2018-07-09T06:39:15.675Z,7.50
2018-07-09T06:41:44.691Z,7.60
2018-07-09T06:44:13.756Z,7.33
2018-07-09T06:46:42.609Z,6.72
2018-07-09T06:49:11.611Z,7.05
2018-07-09T06:51:40.649Z,7.22
2018-07-09T06:54:09.596Z,6.42
2018-07-09T06:56:38.563Z,5.67
2018-07-09T06:59:08.476Z,6.70
2018-07-09T07:01:37.498Z,5.87
2018-07-09T07:04:06.475Z,5.97
2018-07-09T07:06:35.491Z,5.45
2018-07-09T07:09:05.551Z,5.17
2018-07-09T07:11:35.007Z,4.87
2018-07-09T07:14:04.211Z,5.07
2018-07-09T07:16:33.464Z,5.37
2018-07-09T07:19:02.465Z,5.40
2018-07-09T07:21:31.770Z,5.10
2018-07-09T07:24:00.762Z,4.78
2018-07-09T07:26:29.774Z,5.72
2018-07-09T07:28:58.937Z,4.65
2018-07-09T07:31:28.707Z,5.90
2018-07-09T07:33:57.782Z,4.47
2018-07-09T07:36:26.962Z,4.75
2018-07-09T07:38:55.763Z,4.58
2018-07-09T07:41:25.152Z,4.20
2018-07-09T07:43:53.946Z,4.47
2018-07-09T07:46:22.843Z,3.92
2018-07-09T07:48:52.035Z,3.80
2018-07-09T07:51:21.059Z,3.40
2018-07-09T07:53:50.101Z,3.87
2018-07-09T07:56:19.547Z,3.30
2018-07-09T07:58:49.468Z,3.20
2018-07-09T08:01:18.549Z,3.15
2018-07-09T08:03:47.700Z,3.02
2018-07-09T08:06:16.759Z,3.75
2018-07-09T08:08:45.735Z,2.83
2018-07-09T08:11:14.749Z,3.70
2018-07-09T08:13:43.563Z,3.65
2018-07-09T08:16:12.380Z,4.25
2018-07-09T08:18:41.440Z,2.70
2018-07-09T08:21:10.443Z,3.77
2018-07-09T08:23:39.727Z,3.70
2018-07-09T08:26:08.808Z,4.28
2018-07-09T08:28:37.912Z,4.60
2018-07-09T08:31:07.278Z,3.90
2018-07-09T08:33:36.163Z,5.25
2018-07-09T08:36:05.242Z,5.10
2018-07-09T08:38:34.228Z,4.55
2018-07-09T08:41:04.036Z,4.05
2018-07-09T08:43:32.976Z,4.87
2018-07-09T08:46:01.989Z,3.83
2018-07-09T08:48:31.103Z,4.53
2018-07-09T08:51:00.944Z,4.03
2018-07-09T08:53:29.899Z,4.00
2018-07-09T08:55:58.780Z,4.80
2018-07-09T08:58:27.840Z,3.67
2018-07-09T09:00:57.574Z,4.72
2018-07-09T09:03:26.199Z,3.08
2018-07-09T09:05:55.052Z,4.15
2018-07-09T09:08:23.894Z,3.65
2018-07-09T09:10:52.754Z,4.62
2018-07-09T09:13:21.618Z,3.52
2018-07-09T09:15:50.610Z,4.20
2018-07-09T09:18:19.634Z,3.45
2018-07-09T09:20:48.735Z,3.77
2018-07-09T09:23:17.700Z,3.83
2018-07-09T09:25:46.892Z,3.42
2018-07-09T09:28:17.047Z,3.83
2018-07-09T09:30:46.094Z,3.65
2018-07-09T09:33:15.073Z,4.25
2018-07-09T09:35:44.123Z,3.30
2018-07-09T09:38:13.706Z,4.45
2018-07-09T09:40:42.671Z,3.47
2018-07-09T09:43:11.690Z,4.12
2018-07-09T09:45:40.639Z,4.20
2018-07-09T09:48:09.509Z,3.50
2018-07-09T09:50:38.504Z,4.47
2018-07-09T09:53:08.205Z,2.87
2018-07-09T09:55:37.533Z,4.58
2018-07-09T09:58:07.223Z,3.98
2018-07-09T10:00:41.757Z,4.20
2018-07-09T10:03:10.854Z,3.98
2018-07-09T10:05:39.817Z,4.15
2018-07-09T10:08:09.251Z,4.47
2018-07-09T10:10:38.098Z,4.53
2018-07-09T10:13:07.188Z,3.62
2018-07-09T10:15:36.175Z,4.05
2018-07-09T10:18:05.316Z,3.80
2018-07-09T10:20:34.323Z,3.17
2018-07-09T10:23:03.532Z,3.60
2018-07-09T10:25:32.339Z,2.60
2018-07-09T10:28:01.350Z,3.37
2018-07-09T10:30:30.535Z,3.17
2018-07-09T10:32:59.555Z,3.40
2018-07-09T10:35:29.464Z,3.10
2018-07-09T10:37:58.444Z,3.40
2018-07-09T10:40:27.439Z,2.77
2018-07-09T10:42:56.404Z,3.17
2018-07-09T10:45:25.413Z,3.30
2018-07-09T10:47:54.732Z,3.17
2018-07-09T10:50:23.542Z,3.75
2018-07-09T10:52:52.371Z,2.60
2018-07-09T10:55:21.503Z,3.02
2018-07-09T10:57:50.584Z,2.77
2018-07-09T11:00:19.852Z,3.10
2018-07-09T11:02:48.821Z,2.42
2018-07-09T11:05:17.772Z,2.90
2018-07-09T11:07:46.845Z,3.40
2018-07-09T11:10:15.790Z,2.72
2018-07-09T11:12:45.100Z,3.08
2018-07-09T11:15:14.055Z,2.45
2018-07-09T11:17:43.072Z,3.47
2018-07-09T11:20:12.051Z,2.77
2018-07-09T11:22:41.045Z,3.55
2018-07-09T11:25:10.015Z,3.10
2018-07-09T11:27:39.008Z,3.52
2018-07-09T11:30:08.048Z,3.27
2018-07-09T11:32:37.062Z,3.40
2018-07-09T11:35:06.050Z,3.58
2018-07-09T11:37:35.020Z,2.83
2018-07-09T11:40:04.003Z,3.72
2018-07-09T11:42:32.839Z,2.92
2018-07-09T11:45:01.679Z,3.47
2018-07-09T11:47:31.254Z,3.20
2018-07-09T11:50:00.264Z,2.77
2018-07-09T11:52:29.292Z,3.27
2018-07-09T11:54:58.452Z,3.58
2018-07-09T11:57:27.651Z,3.60
2018-07-09T11:59:56.821Z,3.02
2018-07-09T12:02:25.913Z,3.17
2018-07-09T12:04:55.099Z,3.35
2018-07-09T12:07:24.064Z,2.90
2018-07-09T12:09:53.278Z,2.47
2018-07-09T12:12:22.083Z,3.35
2018-07-09T12:14:50.755Z,2.77
2018-07-09T12:17:19.727Z,3.02
2018-07-09T12:19:48.779Z,2.92
2018-07-09T12:22:17.579Z,2.63
2018-07-09T12:24:46.273Z,3.37
2018-07-09T12:27:14.906Z,2.35
2018-07-09T12:29:43.916Z,2.80
2018-07-09T12:32:13.820Z,2.45
2018-07-09T12:34:42.849Z,3.17
2018-07-09T12:37:11.983Z,2.80
2018-07-09T12:39:40.963Z,2.83
2018-07-09T12:42:09.972Z,2.98
2018-07-09T12:44:39.238Z,2.60
2018-07-09T12:47:08.219Z,3.02
2018-07-09T12:49:36.954Z,3.35
2018-07-09T12:52:05.964Z,3.90
2018-07-09T12:54:34.926Z,3.37
2018-07-09T12:57:03.932Z,4.33
2018-07-09T12:59:32.949Z,3.00
2018-07-09T13:02:01.939Z,3.20
2018-07-09T13:04:30.952Z,3.15
2018-07-09T13:07:00.140Z,4.08
2018-07-09T13:09:29.288Z,3.62
2018-07-09T13:11:58.623Z,2.92
2018-07-09T13:14:27.466Z,3.27
2018-07-09T13:16:56.447Z,3.03
2018-07-09T13:19:25.243Z,2.97
2018-07-09T13:21:54.096Z,2.70
2018-07-09T13:24:23.068Z,3.30
2018-07-09T13:26:52.100Z,3.40
2018-07-09T13:29:21.091Z,2.83
2018-07-09T13:31:50.212Z,3.12
2018-07-09T13:34:19.290Z,2.30
2018-07-09T13:36:48.916Z,3.08
2018-07-09T13:39:18.331Z,2.35
2018-07-09T13:41:47.984Z,4.08
2018-07-09T13:44:17.015Z,2.30
2018-07-09T13:46:46.077Z,3.20
2018-07-09T13:49:15.024Z,2.55
2018-07-09T13:51:43.794Z,2.83
2018-07-09T13:54:12.684Z,3.00
2018-07-09T13:56:41.706Z,2.75
2018-07-09T13:59:10.666Z,3.92
2018-07-09T14:01:39.635Z,2.75
2018-07-09T14:04:08.753Z,3.65
2018-07-09T14:06:37.723Z,2.67
2018-07-09T14:09:07.196Z,3.45
2018-07-09T14:11:36.176Z,2.92
2018-07-09T14:14:05.743Z,3.67
2018-07-09T14:16:34.717Z,2.80
2018-07-09T14:20:14.980Z,3.95
2018-07-09T14:22:43.976Z,3.33
2018-07-09T14:25:12.973Z,3.25
2018-07-09T14:27:41.739Z,3.90
2018-07-09T14:30:10.991Z,3.40
2018-07-09T14:32:40.234Z,3.55
2018-07-09T14:35:09.447Z,3.00
2018-07-09T14:37:38.564Z,3.77
2018-07-09T14:40:07.689Z,2.75
2018-07-09T14:42:36.851Z,3.05
2018-07-09T14:45:06.035Z,2.35
2018-07-09T14:47:34.872Z,3.00
2018-07-09T14:50:03.918Z,2.85
2018-07-09T14:52:32.648Z,3.42
2018-07-09T14:55:01.570Z,3.10
2018-07-09T14:57:30.495Z,3.40
2018-07-09T14:59:59.306Z,2.95
2018-07-09T15:02:28.203Z,2.27
2018-07-09T15:04:57.276Z,3.27
2018-07-09T15:07:26.278Z,2.67
2018-07-09T15:09:55.337Z,3.20
2018-07-09T15:12:24.174Z,3.02
2018-07-09T15:14:53.080Z,3.02
2018-07-09T15:17:22.138Z,4.05
2018-07-09T15:19:50.939Z,2.80
2018-07-09T15:22:19.876Z,2.90
2018-07-09T15:24:48.960Z,2.45
2018-07-09T15:27:18.025Z,3.17
2018-07-09T15:29:47.024Z,2.98
2018-07-09T15:32:27.446Z,3.30
2018-07-09T15:34:56.190Z,2.40
2018-07-09T15:37:25.276Z,3.40
2018-07-09T15:39:54.364Z,3.02
2018-07-09T15:42:23.386Z,3.15
2018-07-09T15:44:52.511Z,3.15
2018-07-09T15:47:21.583Z,4.45
2018-07-09T15:49:50.616Z,3.42
2018-07-09T15:52:19.800Z,3.67
2018-07-09T15:54:49.025Z,4.05
2018-07-09T15:57:18.248Z,3.42
2018-07-09T15:59:47.395Z,4.35
2018-07-09T16:02:16.977Z,3.30
2018-07-09T16:04:45.995Z,4.55
2018-07-09T16:07:14.986Z,3.42
2018-07-09T16:09:43.746Z,3.83
2018-07-09T16:12:12.715Z,3.17
2018-07-09T16:14:41.762Z,4.12
2018-07-09T16:17:10.780Z,4.05
2018-07-09T16:19:39.540Z,3.65
2018-07-09T16:22:08.559Z,3.67
2018-07-09T16:24:37.762Z,2.87
2018-07-09T16:27:06.877Z,3.83
2018-07-09T16:29:35.912Z,3.47
2018-07-09T16:32:04.803Z,4.22
2018-07-09T16:34:33.762Z,3.08
2018-07-09T16:37:02.755Z,3.33
2018-07-09T16:39:31.760Z,4.92
2018-07-09T16:42:00.752Z,3.58
2018-07-09T16:44:29.816Z,4.03
2018-07-09T16:46:58.880Z,3.35
2018-07-09T16:49:27.884Z,4.05
2018-07-09T16:51:56.958Z,3.22
2018-07-09T16:54:25.935Z,3.67
2018-07-09T16:56:54.931Z,3.00
2018-07-09T16:59:23.916Z,4.20
2018-07-09T17:01:52.951Z,3.55
2018-07-09T17:04:21.904Z,3.75
2018-07-09T17:06:50.898Z,4.28
2018-07-09T17:09:20.366Z,3.30
2018-07-09T17:11:49.381Z,4.53
2018-07-09T17:14:18.399Z,3.00
2018-07-09T17:16:47.423Z,4.25
2018-07-09T17:19:17.152Z,3.65
2018-07-09T17:21:46.155Z,4.67
2018-07-09T17:24:15.505Z,3.93
2018-07-09T17:26:44.621Z,3.80
2018-07-09T17:29:13.640Z,4.03
2018-07-09T17:31:42.323Z,4.15
2018-07-09T17:34:10.985Z,4.17
2018-07-09T17:36:39.888Z,3.25
2018-07-09T17:39:08.960Z,4.95
2018-07-09T17:41:38.211Z,3.90
2018-07-09T17:44:07.839Z,4.73
2018-07-09T17:46:36.829Z,4.30
2018-07-09T17:49:06.174Z,4.17
2018-07-09T17:51:35.241Z,4.53
2018-07-09T17:54:04.233Z,4.03
2018-07-09T17:56:33.242Z,4.28
2018-07-09T17:59:02.301Z,3.85
2018-07-09T18:01:31.317Z,4.43
2018-07-09T18:04:01.101Z,4.03
2018-07-09T18:06:30.823Z,4.87
2018-07-09T18:09:00.533Z,3.80
2018-07-09T18:11:29.590Z,4.70
2018-07-09T18:13:58.658Z,4.03
2018-07-09T18:16:29.158Z,4.72
2018-07-09T18:18:58.344Z,4.40
2018-07-09T18:21:27.738Z,4.17
2018-07-09T18:23:56.955Z,4.83
2018-07-09T18:26:25.952Z,3.67
2018-07-09T18:28:55.247Z,4.30
2018-07-09T18:31:24.543Z,4.00
2018-07-09T18:33:54.255Z,4.75
2018-07-09T18:36:23.691Z,4.50
2018-07-09T18:38:52.893Z,4.78
2018-07-09T18:41:22.315Z,4.08
2018-07-09T18:43:52.227Z,5.43
2018-07-09T18:46:22.140Z,4.00
2018-07-09T18:48:51.349Z,5.05
2018-07-09T18:51:20.463Z,3.97
2018-07-09T18:53:49.556Z,4.90
2018-07-09T18:56:18.650Z,4.35
2018-07-09T18:58:47.978Z,4.47
2018-07-09T19:01:17.112Z,4.72
2018-07-09T19:03:46.595Z,4.33
2018-07-09T19:06:34.744Z,5.83
2018-07-09T19:09:04.566Z,5.15
2018-07-09T19:11:33.729Z,3.87
2018-07-09T19:14:02.675Z,5.12
2018-07-09T19:16:31.976Z,4.47
2018-07-09T19:19:12.493Z,4.60
2018-07-09T19:21:47.247Z,4.10
2018-07-09T19:24:15.224Z,4.47
2018-07-09T19:26:43.942Z,4.73
2018-07-09T19:29:12.214Z,5.28
2018-07-09T19:31:40.192Z,4.73
2018-07-09T19:34:12.318Z,4.67
2018-07-09T19:36:40.443Z,4.20
2018-07-09T19:39:09.301Z,4.73
2018-07-09T19:41:37.656Z,4.53
2018-07-09T19:44:05.702Z,4.63
2018-07-09T19:46:34.816Z,4.73
2018-07-09T19:49:02.759Z,3.37
2018-07-09T19:51:30.934Z,4.97
2018-07-09T19:53:59.535Z,4.27
2018-07-09T19:56:27.456Z,4.87
2018-07-09T19:58:55.795Z,3.75
2018-07-09T20:01:23.824Z,4.90
2018-07-09T20:03:51.966Z,4.77
2018-07-09T20:06:20.811Z,4.60
2018-07-09T20:08:54.305Z,4.50
2018-07-09T20:11:27.756Z,4.65
2018-07-09T20:14:03.017Z,4.43
2018-07-09T20:16:36.458Z,4.50
2018-07-09T20:19:04.552Z,3.00
2018-07-09T20:21:32.624Z,4.27
2018-07-09T20:24:02.487Z,4.53
2018-07-09T20:26:30.558Z,4.50
2018-07-09T20:28:58.868Z,7.53
2018-07-09T20:31:26.837Z,4.20
2018-07-09T20:33:55.265Z,5.03
2018-07-09T20:36:24.167Z,4.40
2018-07-09T20:38:52.230Z,4.83
2018-07-09T20:41:20.521Z,4.17
2018-07-09T20:43:48.659Z,4.47
2018-07-09T20:46:16.986Z,5.23
2018-07-09T20:48:44.970Z,4.17
2018-07-09T20:51:13.071Z,4.73
2018-07-09T20:53:41.136Z,4.33
2018-07-09T20:56:09.535Z,6.00
2018-07-09T20:58:37.855Z,3.93
2018-07-09T21:01:06.042Z,4.87
2018-07-09T21:03:34.371Z,4.97
2018-07-09T21:06:02.311Z,4.17
2018-07-09T21:08:30.394Z,4.57
2018-07-09T21:10:58.470Z,3.37
2018-07-09T21:13:30.326Z,4.17
2018-07-09T21:15:58.712Z,4.63
2018-07-09T21:18:27.245Z,3.60
2018-07-09T21:20:55.408Z,4.20
2018-07-09T21:23:23.953Z,3.80
2018-07-09T21:25:51.847Z,4.90
2018-07-09T21:28:19.907Z,4.30
2018-07-09T21:30:47.951Z,4.87
2018-07-09T21:33:15.981Z,4.43
2018-07-09T21:35:44.047Z,4.07
2018-07-09T21:38:12.068Z,4.63
2018-07-09T21:40:40.071Z,3.80
2018-07-09T21:43:08.111Z,4.58
2018-07-09T21:45:37.064Z,3.30
2018-07-09T21:48:10.557Z,3.57
2018-07-09T21:50:33.123Z,4.50
2018-07-09T21:53:01.182Z,3.80
2018-07-09T21:55:29.215Z,4.63
2018-07-09T21:57:57.488Z,3.43
2018-07-09T22:00:25.534Z,4.50
2018-07-09T22:02:54.745Z,4.50
2018-07-09T22:05:22.937Z,3.53
2018-07-09T22:07:50.914Z,4.50
2018-07-09T22:10:19.072Z,3.57
2018-07-09T22:12:47.411Z,4.97
2018-07-09T22:15:15.400Z,4.33
2018-07-09T22:17:43.383Z,4.07
2018-07-09T22:20:11.459Z,4.10
2018-07-09T22:22:39.485Z,2.97
2018-07-09T22:25:07.747Z,3.70
2018-07-09T22:27:35.652Z,3.27
2018-07-09T22:30:04.027Z,3.83
2018-07-09T22:32:33.003Z,3.57
2018-07-09T22:35:01.992Z,3.30
2018-07-09T22:37:31.340Z,3.73
2018-07-09T22:40:00.264Z,3.50
2018-07-09T22:42:29.235Z,4.20
2018-07-09T22:44:58.369Z,3.10
2018-07-09T22:47:27.393Z,5.20
2018-07-09T22:49:56.449Z,4.00
2018-07-09T22:52:25.441Z,4.00
2018-07-09T22:55:05.921Z,4.20
2018-07-09T22:57:35.111Z,5.13
2018-07-09T23:00:04.127Z,4.20
2018-07-09T23:02:32.900Z,5.20
2018-07-09T23:05:01.854Z,4.67
2018-07-09T23:07:30.923Z,5.10
2018-07-09T23:10:11.202Z,4.73
2018-07-09T23:17:03.787Z,5.13
2018-07-09T23:19:42.940Z,5.10
2018-07-09T23:22:15.245Z,5.30
2018-07-09T23:24:43.340Z,4.53
2018-07-09T23:27:11.348Z,5.30
2018-07-09T23:29:39.344Z,4.33
2018-07-09T23:32:07.398Z,4.83
2018-07-09T23:34:35.501Z,4.45
2018-07-09T23:37:03.551Z,4.67
2018-07-09T23:39:32.499Z,4.93
2018-07-09T23:42:00.572Z,3.93
2018-07-09T23:44:28.555Z,5.37
2018-07-09T23:46:56.626Z,4.47
2018-07-09T23:49:24.789Z,4.90
2018-07-09T23:51:53.105Z,4.57
2018-07-09T23:54:21.181Z,4.30
